sensor_id;sensor_type;location;lat;lon;timestamp;temperature;humidity
22781;DHT22;11557;50.884;4.322;2023-08-17T00:01:43;22.50;99.90
22781;DHT22;11557;50.884;4.322;2023-08-17T00:04:09;22.30;99.90
22781;DHT22;11557;50.884;4.322;2023-08-17T00:06:34;22.30;99.90
22781;DHT22;11557;50.884;4.322;2023-08-17T00:09:00;22.30;99.90
22781;DHT22;11557;50.884;4.322;2023-08-17T00:11:26;22.30;99.90
22781;DHT22;11557;50.884;4.322;2023-08-17T00:13:52;22.20;99.90
22781;DHT22;11557;50.884;4.322;2023-08-17T00:16:18;22.20;99.90
22781;DHT22;11557;50.884;4.322;2023-08-17T00:18:43;22.20;99.90
22781;DHT22;11557;50.884;4.322;2023-08-17T00:21:09;22.10;99.90
22781;DHT22;11557;50.884;4.322;2023-08-17T00:23:35;22.10;99.90
22781;DHT22;11557;50.884;4.322;2023-08-17T00:26:01;21.90;99.90
22781;DHT22;11557;50.884;4.322;2023-08-17T00:28:27;22.00;99.90
22781;DHT22;11557;50.884;4.322;2023-08-17T00:30:53;22.00;99.90
22781;DHT22;11557;50.884;4.322;2023-08-17T00:33:19;22.00;99.90
22781;DHT22;11557;50.884;4.322;2023-08-17T00:35:44;22.00;99.90
22781;DHT22;11557;50.884;4.322;2023-08-17T00:38:11;22.00;99.90
22781;DHT22;11557;50.884;4.322;2023-08-17T00:40:37;22.00;99.90
22781;DHT22;11557;50.884;4.322;2023-08-17T00:43:03;22.00;99.90
22781;DHT22;11557;50.884;4.322;2023-08-17T00:45:30;22.00;99.90
22781;DHT22;11557;50.884;4.322;2023-08-17T00:47:57;21.80;99.90
22781;DHT22;11557;50.884;4.322;2023-08-17T00:50:28;21.90;99.90
22781;DHT22;11557;50.884;4.322;2023-08-17T00:52:55;21.80;99.90
22781;DHT22;11557;50.884;4.322;2023-08-17T00:55:22;21.70;99.90
22781;DHT22;11557;50.884;4.322;2023-08-17T00:57:48;21.60;99.90
22781;DHT22;11557;50.884;4.322;2023-08-17T01:00:14;21.80;99.90
22781;DHT22;11557;50.884;4.322;2023-08-17T01:02:41;21.90;99.90
22781;DHT22;11557;50.884;4.322;2023-08-17T01:05:07;22.00;99.90
22781;DHT22;11557;50.884;4.322;2023-08-17T01:07:34;22.80;99.90
22781;DHT22;11557;50.884;4.322;2023-08-17T01:10:00;21.90;99.90
22781;DHT22;11557;50.884;4.322;2023-08-17T01:12:30;21.90;99.90
22781;DHT22;11557;50.884;4.322;2023-08-17T01:15:19;21.70;99.90
22781;DHT22;11557;50.884;4.322;2023-08-17T01:20:30;21.60;99.90
22781;DHT22;11557;50.884;4.322;2023-08-17T01:23:04;21.60;99.90
22781;DHT22;11557;50.884;4.322;2023-08-17T01:25:30;21.60;99.90
22781;DHT22;11557;50.884;4.322;2023-08-17T01:27:56;21.70;99.90
22781;DHT22;11557;50.884;4.322;2023-08-17T01:30:24;21.50;99.90
22781;DHT22;11557;50.884;4.322;2023-08-17T01:33:10;21.50;99.90
22781;DHT22;11557;50.884;4.322;2023-08-17T01:35:54;21.40;99.90
22781;DHT22;11557;50.884;4.322;2023-08-17T01:38:21;21.30;99.90
22781;DHT22;11557;50.884;4.322;2023-08-17T01:40:49;21.40;99.90
22781;DHT22;11557;50.884;4.322;2023-08-17T01:43:16;21.30;99.90
22781;DHT22;11557;50.884;4.322;2023-08-17T01:45:42;21.30;99.90
22781;DHT22;11557;50.884;4.322;2023-08-17T01:48:08;21.30;99.90
22781;DHT22;11557;50.884;4.322;2023-08-17T01:50:34;21.40;99.90
22781;DHT22;11557;50.884;4.322;2023-08-17T01:52:59;21.20;99.90
22781;DHT22;11557;50.884;4.322;2023-08-17T01:55:25;21.10;99.90
22781;DHT22;11557;50.884;4.322;2023-08-17T01:57:52;21.00;99.90
22781;DHT22;11557;50.884;4.322;2023-08-17T02:00:18;21.30;99.90
22781;DHT22;11557;50.884;4.322;2023-08-17T02:02:43;20.90;99.90
22781;DHT22;11557;50.884;4.322;2023-08-17T02:05:09;20.80;99.90
22781;DHT22;11557;50.884;4.322;2023-08-17T02:07:35;20.90;99.90
22781;DHT22;11557;50.884;4.322;2023-08-17T02:10:01;20.90;99.90
22781;DHT22;11557;50.884;4.322;2023-08-17T02:12:26;20.80;99.90
22781;DHT22;11557;50.884;4.322;2023-08-17T02:14:52;20.80;99.90
22781;DHT22;11557;50.884;4.322;2023-08-17T02:17:19;20.80;99.90
22781;DHT22;11557;50.884;4.322;2023-08-17T02:19:45;20.60;99.90
22781;DHT22;11557;50.884;4.322;2023-08-17T02:22:13;20.70;99.90
22781;DHT22;11557;50.884;4.322;2023-08-17T02:24:39;20.70;99.90
22781;DHT22;11557;50.884;4.322;2023-08-17T02:27:06;21.90;99.90
22781;DHT22;11557;50.884;4.322;2023-08-17T02:29:32;20.70;99.90
22781;DHT22;11557;50.884;4.322;2023-08-17T02:31:58;20.70;99.90
22781;DHT22;11557;50.884;4.322;2023-08-17T02:34:24;20.90;99.90
22781;DHT22;11557;50.884;4.322;2023-08-17T02:36:50;20.60;99.90
22781;DHT22;11557;50.884;4.322;2023-08-17T02:39:15;20.40;99.90
22781;DHT22;11557;50.884;4.322;2023-08-17T02:41:41;20.50;99.90
22781;DHT22;11557;50.884;4.322;2023-08-17T02:44:07;20.60;99.90
22781;DHT22;11557;50.884;4.322;2023-08-17T02:46:32;20.60;99.90
22781;DHT22;11557;50.884;4.322;2023-08-17T02:48:58;20.70;99.90
22781;DHT22;11557;50.884;4.322;2023-08-17T02:51:24;20.80;99.90
22781;DHT22;11557;50.884;4.322;2023-08-17T02:53:49;20.70;99.90
22781;DHT22;11557;50.884;4.322;2023-08-17T02:56:15;20.70;99.90
22781;DHT22;11557;50.884;4.322;2023-08-17T02:58:41;20.60;99.90
22781;DHT22;11557;50.884;4.322;2023-08-17T03:01:07;20.70;99.90
22781;DHT22;11557;50.884;4.322;2023-08-17T03:03:34;20.90;99.90
22781;DHT22;11557;50.884;4.322;2023-08-17T03:06:00;20.80;99.90
22781;DHT22;11557;50.884;4.322;2023-08-17T03:08:26;20.90;99.90
22781;DHT22;11557;50.884;4.322;2023-08-17T03:10:52;20.90;99.90
22781;DHT22;11557;50.884;4.322;2023-08-17T03:13:17;20.90;99.90
22781;DHT22;11557;50.884;4.322;2023-08-17T03:15:43;20.90;99.90
22781;DHT22;11557;50.884;4.322;2023-08-17T03:18:08;20.90;99.90
22781;DHT22;11557;50.884;4.322;2023-08-17T03:20:34;21.00;99.90
22781;DHT22;11557;50.884;4.322;2023-08-17T03:23:00;21.00;99.90
22781;DHT22;11557;50.884;4.322;2023-08-17T03:25:26;21.00;99.90
22781;DHT22;11557;50.884;4.322;2023-08-17T03:27:52;21.10;99.90
22781;DHT22;11557;50.884;4.322;2023-08-17T03:30:17;21.20;99.90
22781;DHT22;11557;50.884;4.322;2023-08-17T03:32:43;21.30;99.90
22781;DHT22;11557;50.884;4.322;2023-08-17T03:35:08;21.30;99.90
22781;DHT22;11557;50.884;4.322;2023-08-17T03:37:34;21.10;99.90
22781;DHT22;11557;50.884;4.322;2023-08-17T03:40:00;21.10;99.90
22781;DHT22;11557;50.884;4.322;2023-08-17T03:42:28;21.10;99.90
22781;DHT22;11557;50.884;4.322;2023-08-17T03:44:54;21.10;99.90
22781;DHT22;11557;50.884;4.322;2023-08-17T03:47:20;21.00;99.90
22781;DHT22;11557;50.884;4.322;2023-08-17T03:49:46;21.00;99.90
22781;DHT22;11557;50.884;4.322;2023-08-17T03:52:12;21.20;99.90
22781;DHT22;11557;50.884;4.322;2023-08-17T03:54:38;21.20;99.90
22781;DHT22;11557;50.884;4.322;2023-08-17T03:57:04;21.20;99.90
22781;DHT22;11557;50.884;4.322;2023-08-17T03:59:30;21.20;99.90
22781;DHT22;11557;50.884;4.322;2023-08-17T04:01:56;21.30;99.90
22781;DHT22;11557;50.884;4.322;2023-08-17T04:04:21;21.20;99.90
22781;DHT22;11557;50.884;4.322;2023-08-17T04:06:47;21.10;99.90
22781;DHT22;11557;50.884;4.322;2023-08-17T04:09:13;21.10;99.90
22781;DHT22;11557;50.884;4.322;2023-08-17T04:11:39;21.00;99.90
22781;DHT22;11557;50.884;4.322;2023-08-17T04:14:04;20.90;99.90
22781;DHT22;11557;50.884;4.322;2023-08-17T04:16:31;20.90;99.90
22781;DHT22;11557;50.884;4.322;2023-08-17T04:18:57;21.00;99.90
22781;DHT22;11557;50.884;4.322;2023-08-17T04:21:23;21.00;99.90
22781;DHT22;11557;50.884;4.322;2023-08-17T04:23:48;20.80;99.90
22781;DHT22;11557;50.884;4.322;2023-08-17T04:26:14;20.80;99.90
22781;DHT22;11557;50.884;4.322;2023-08-17T04:28:40;20.80;99.90
22781;DHT22;11557;50.884;4.322;2023-08-17T04:31:05;20.70;99.90
22781;DHT22;11557;50.884;4.322;2023-08-17T04:33:31;20.70;99.90
22781;DHT22;11557;50.884;4.322;2023-08-17T04:35:57;20.60;99.90
22781;DHT22;11557;50.884;4.322;2023-08-17T04:38:25;20.70;99.90
22781;DHT22;11557;50.884;4.322;2023-08-17T04:40:50;20.70;99.90
22781;DHT22;11557;50.884;4.322;2023-08-17T04:43:16;20.70;99.90
22781;DHT22;11557;50.884;4.322;2023-08-17T04:45:42;20.70;99.90
22781;DHT22;11557;50.884;4.322;2023-08-17T04:48:08;20.50;99.90
22781;DHT22;11557;50.884;4.322;2023-08-17T04:50:33;20.30;99.90
22781;DHT22;11557;50.884;4.322;2023-08-17T04:52:59;20.40;99.90
22781;DHT22;11557;50.884;4.322;2023-08-17T04:55:25;20.50;99.90
22781;DHT22;11557;50.884;4.322;2023-08-17T04:57:50;20.50;99.90
22781;DHT22;11557;50.884;4.322;2023-08-17T05:00:16;20.60;99.90
22781;DHT22;11557;50.884;4.322;2023-08-17T05:02:42;20.80;99.90
22781;DHT22;11557;50.884;4.322;2023-08-17T05:05:10;20.80;99.90
22781;DHT22;11557;50.884;4.322;2023-08-17T05:07:36;20.80;99.90
22781;DHT22;11557;50.884;4.322;2023-08-17T05:10:02;20.90;99.90
22781;DHT22;11557;50.884;4.322;2023-08-17T05:12:28;20.90;99.90
22781;DHT22;11557;50.884;4.322;2023-08-17T05:14:53;20.90;99.90
22781;DHT22;11557;50.884;4.322;2023-08-17T05:17:19;20.80;99.90
22781;DHT22;11557;50.884;4.322;2023-08-17T05:19:45;20.80;99.90
22781;DHT22;11557;50.884;4.322;2023-08-17T05:22:12;20.90;99.90
22781;DHT22;11557;50.884;4.322;2023-08-17T05:24:38;20.80;99.90
22781;DHT22;11557;50.884;4.322;2023-08-17T05:27:04;20.90;99.90
22781;DHT22;11557;50.884;4.322;2023-08-17T05:29:30;20.90;99.90
22781;DHT22;11557;50.884;4.322;2023-08-17T05:31:57;21.00;99.90
22781;DHT22;11557;50.884;4.322;2023-08-17T05:34:23;20.90;99.90
22781;DHT22;11557;50.884;4.322;2023-08-17T05:36:49;21.00;99.90
22781;DHT22;11557;50.884;4.322;2023-08-17T05:39:15;21.00;99.90
22781;DHT22;11557;50.884;4.322;2023-08-17T05:41:40;21.00;99.90
22781;DHT22;11557;50.884;4.322;2023-08-17T05:44:06;21.20;99.90
22781;DHT22;11557;50.884;4.322;2023-08-17T05:46:33;21.10;99.90
22781;DHT22;11557;50.884;4.322;2023-08-17T05:48:59;21.10;99.90
22781;DHT22;11557;50.884;4.322;2023-08-17T05:51:25;21.20;99.90
22781;DHT22;11557;50.884;4.322;2023-08-17T05:53:51;21.40;99.90
22781;DHT22;11557;50.884;4.322;2023-08-17T05:56:16;21.50;99.90
22781;DHT22;11557;50.884;4.322;2023-08-17T05:58:42;21.40;99.90
22781;DHT22;11557;50.884;4.322;2023-08-17T06:01:09;21.50;99.90
22781;DHT22;11557;50.884;4.322;2023-08-17T06:03:36;21.50;99.90
22781;DHT22;11557;50.884;4.322;2023-08-17T06:06:03;21.20;99.90
22781;DHT22;11557;50.884;4.322;2023-08-17T06:08:29;21.30;99.90
22781;DHT22;11557;50.884;4.322;2023-08-17T06:10:55;21.40;99.90
22781;DHT22;11557;50.884;4.322;2023-08-17T06:13:21;21.40;99.90
22781;DHT22;11557;50.884;4.322;2023-08-17T06:15:47;21.50;99.90
22781;DHT22;11557;50.884;4.322;2023-08-17T06:18:13;21.50;99.90
22781;DHT22;11557;50.884;4.322;2023-08-17T06:20:38;21.50;99.90
22781;DHT22;11557;50.884;4.322;2023-08-17T06:23:04;21.60;99.90
22781;DHT22;11557;50.884;4.322;2023-08-17T06:25:30;21.50;99.90
22781;DHT22;11557;50.884;4.322;2023-08-17T06:27:56;21.50;99.90
22781;DHT22;11557;50.884;4.322;2023-08-17T06:30:22;21.50;99.90
22781;DHT22;11557;50.884;4.322;2023-08-17T06:32:50;21.50;99.90
22781;DHT22;11557;50.884;4.322;2023-08-17T06:35:15;21.60;99.90
22781;DHT22;11557;50.884;4.322;2023-08-17T06:37:41;21.60;99.90
22781;DHT22;11557;50.884;4.322;2023-08-17T06:40:07;21.60;99.90
22781;DHT22;11557;50.884;4.322;2023-08-17T06:42:34;21.60;99.90
22781;DHT22;11557;50.884;4.322;2023-08-17T06:45:00;21.50;99.90
22781;DHT22;11557;50.884;4.322;2023-08-17T06:47:26;21.50;99.90
22781;DHT22;11557;50.884;4.322;2023-08-17T06:49:51;21.70;99.90
22781;DHT22;11557;50.884;4.322;2023-08-17T06:52:17;21.60;99.90
22781;DHT22;11557;50.884;4.322;2023-08-17T06:54:43;21.60;99.90
22781;DHT22;11557;50.884;4.322;2023-08-17T06:57:08;21.70;99.90
22781;DHT22;11557;50.884;4.322;2023-08-17T06:59:34;21.70;99.90
22781;DHT22;11557;50.884;4.322;2023-08-17T07:02:00;21.70;99.90
22781;DHT22;11557;50.884;4.322;2023-08-17T07:04:26;21.80;99.90
22781;DHT22;11557;50.884;4.322;2023-08-17T07:06:52;21.80;99.90
22781;DHT22;11557;50.884;4.322;2023-08-17T07:09:17;21.90;99.90
22781;DHT22;11557;50.884;4.322;2023-08-17T07:11:44;21.80;99.90
22781;DHT22;11557;50.884;4.322;2023-08-17T07:14:10;21.80;99.90
22781;DHT22;11557;50.884;4.322;2023-08-17T07:16:35;21.90;99.90
22781;DHT22;11557;50.884;4.322;2023-08-17T07:19:02;21.90;99.90
22781;DHT22;11557;50.884;4.322;2023-08-17T07:21:28;21.90;99.90
22781;DHT22;11557;50.884;4.322;2023-08-17T07:23:54;21.90;99.90
22781;DHT22;11557;50.884;4.322;2023-08-17T07:26:21;21.90;99.90
22781;DHT22;11557;50.884;4.322;2023-08-17T07:28:48;21.90;99.90
22781;DHT22;11557;50.884;4.322;2023-08-17T07:31:14;22.00;99.90
22781;DHT22;11557;50.884;4.322;2023-08-17T07:33:40;21.80;99.90
22781;DHT22;11557;50.884;4.322;2023-08-17T07:36:06;21.90;99.90
22781;DHT22;11557;50.884;4.322;2023-08-17T07:38:31;21.90;99.90
22781;DHT22;11557;50.884;4.322;2023-08-17T07:40:58;21.90;99.90
22781;DHT22;11557;50.884;4.322;2023-08-17T07:43:24;21.90;99.90
22781;DHT22;11557;50.884;4.322;2023-08-17T07:45:56;22.00;99.90
22781;DHT22;11557;50.884;4.322;2023-08-17T07:48:22;22.10;99.90
22781;DHT22;11557;50.884;4.322;2023-08-17T07:50:49;22.00;99.90
22781;DHT22;11557;50.884;4.322;2023-08-17T07:53:16;22.00;99.90
22781;DHT22;11557;50.884;4.322;2023-08-17T07:55:41;21.90;99.90
22781;DHT22;11557;50.884;4.322;2023-08-17T07:58:07;21.90;99.90
22781;DHT22;11557;50.884;4.322;2023-08-17T08:00:32;21.90;99.90
22781;DHT22;11557;50.884;4.322;2023-08-17T08:02:58;22.00;99.90
22781;DHT22;11557;50.884;4.322;2023-08-17T08:05:24;21.90;99.90
22781;DHT22;11557;50.884;4.322;2023-08-17T08:07:50;22.00;99.90
22781;DHT22;11557;50.884;4.322;2023-08-17T08:10:15;22.10;99.90
22781;DHT22;11557;50.884;4.322;2023-08-17T08:12:41;22.10;99.90
22781;DHT22;11557;50.884;4.322;2023-08-17T08:15:07;22.10;99.90
22781;DHT22;11557;50.884;4.322;2023-08-17T08:17:33;22.20;99.90
22781;DHT22;11557;50.884;4.322;2023-08-17T08:19:59;22.20;99.90
22781;DHT22;11557;50.884;4.322;2023-08-17T08:22:24;22.20;99.90
22781;DHT22;11557;50.884;4.322;2023-08-17T08:24:50;22.20;99.90
22781;DHT22;11557;50.884;4.322;2023-08-17T08:27:16;22.20;99.90
22781;DHT22;11557;50.884;4.322;2023-08-17T08:29:42;22.30;99.90
22781;DHT22;11557;50.884;4.322;2023-08-17T08:32:08;22.20;99.90
22781;DHT22;11557;50.884;4.322;2023-08-17T08:34:33;22.20;99.90
22781;DHT22;11557;50.884;4.322;2023-08-17T08:36:59;22.20;99.90
22781;DHT22;11557;50.884;4.322;2023-08-17T08:39:25;22.30;99.90
22781;DHT22;11557;50.884;4.322;2023-08-17T08:41:52;22.20;99.90
22781;DHT22;11557;50.884;4.322;2023-08-17T08:44:18;22.30;99.90
22781;DHT22;11557;50.884;4.322;2023-08-17T08:46:44;22.40;99.90
22781;DHT22;11557;50.884;4.322;2023-08-17T08:49:12;22.40;99.90
22781;DHT22;11557;50.884;4.322;2023-08-17T08:51:46;22.40;99.90
22781;DHT22;11557;50.884;4.322;2023-08-17T08:54:25;22.50;99.90
22781;DHT22;11557;50.884;4.322;2023-08-17T08:56:59;22.50;99.90
22781;DHT22;11557;50.884;4.322;2023-08-17T08:59:27;22.60;99.90
22781;DHT22;11557;50.884;4.322;2023-08-17T09:01:55;22.40;99.90
22781;DHT22;11557;50.884;4.322;2023-08-17T09:04:22;22.60;99.90
22781;DHT22;11557;50.884;4.322;2023-08-17T09:06:50;22.60;99.90
22781;DHT22;11557;50.884;4.322;2023-08-17T09:09:16;22.70;99.90
22781;DHT22;11557;50.884;4.322;2023-08-17T09:11:43;22.90;99.90
22781;DHT22;11557;50.884;4.322;2023-08-17T09:14:09;23.00;99.90
22781;DHT22;11557;50.884;4.322;2023-08-17T09:16:35;23.10;99.90
22781;DHT22;11557;50.884;4.322;2023-08-17T09:19:01;23.10;99.90
22781;DHT22;11557;50.884;4.322;2023-08-17T09:21:31;23.00;99.90
22781;DHT22;11557;50.884;4.322;2023-08-17T09:23:57;23.00;99.90
22781;DHT22;11557;50.884;4.322;2023-08-17T09:26:23;23.00;99.90
22781;DHT22;11557;50.884;4.322;2023-08-17T09:28:52;23.20;99.90
22781;DHT22;11557;50.884;4.322;2023-08-17T09:31:23;23.40;99.90
22781;DHT22;11557;50.884;4.322;2023-08-17T09:33:52;23.60;99.90
22781;DHT22;11557;50.884;4.322;2023-08-17T09:36:22;23.90;99.90
22781;DHT22;11557;50.884;4.322;2023-08-17T09:38:48;24.10;99.90
22781;DHT22;11557;50.884;4.322;2023-08-17T09:41:18;24.10;99.90
22781;DHT22;11557;50.884;4.322;2023-08-17T09:43:44;24.20;99.90
22781;DHT22;11557;50.884;4.322;2023-08-17T09:46:10;24.30;99.90
22781;DHT22;11557;50.884;4.322;2023-08-17T09:48:36;24.20;99.90
22781;DHT22;11557;50.884;4.322;2023-08-17T09:51:02;24.30;99.90
22781;DHT22;11557;50.884;4.322;2023-08-17T09:53:28;24.20;99.90
22781;DHT22;11557;50.884;4.322;2023-08-17T09:55:54;24.30;99.90
22781;DHT22;11557;50.884;4.322;2023-08-17T09:58:23;24.40;99.90
22781;DHT22;11557;50.884;4.322;2023-08-17T10:00:49;24.50;99.90
22781;DHT22;11557;50.884;4.322;2023-08-17T10:03:18;24.70;99.90
22781;DHT22;11557;50.884;4.322;2023-08-17T10:05:48;24.70;99.90
22781;DHT22;11557;50.884;4.322;2023-08-17T10:08:19;25.00;99.90
22781;DHT22;11557;50.884;4.322;2023-08-17T10:10:46;25.40;99.90
22781;DHT22;11557;50.884;4.322;2023-08-17T10:13:33;25.60;99.90
22781;DHT22;11557;50.884;4.322;2023-08-17T10:17:04;25.60;99.90
22781;DHT22;11557;50.884;4.322;2023-08-17T10:19:12;25.80;99.90
22781;DHT22;11557;50.884;4.322;2023-08-17T10:21:46;25.80;99.90
22781;DHT22;11557;50.884;4.322;2023-08-17T10:24:14;25.90;99.90
22781;DHT22;11557;50.884;4.322;2023-08-17T10:26:40;26.00;99.90
22781;DHT22;11557;50.884;4.322;2023-08-17T10:29:06;26.20;99.90
22781;DHT22;11557;50.884;4.322;2023-08-17T10:31:34;26.40;99.90
22781;DHT22;11557;50.884;4.322;2023-08-17T10:34:01;26.60;99.90
22781;DHT22;11557;50.884;4.322;2023-08-17T10:36:28;26.60;99.90
22781;DHT22;11557;50.884;4.322;2023-08-17T10:41:47;26.80;99.90
22781;DHT22;11557;50.884;4.322;2023-08-17T10:47:25;26.60;99.90
22781;DHT22;11557;50.884;4.322;2023-08-17T10:49:56;26.60;99.90
22781;DHT22;11557;50.884;4.322;2023-08-17T10:52:35;26.60;99.90
22781;DHT22;11557;50.884;4.322;2023-08-17T10:55:04;26.60;99.90
22781;DHT22;11557;50.884;4.322;2023-08-17T10:57:37;26.60;99.90
22781;DHT22;11557;50.884;4.322;2023-08-17T11:02:43;26.60;99.90
22781;DHT22;11557;50.884;4.322;2023-08-17T11:05:10;26.40;99.90
22781;DHT22;11557;50.884;4.322;2023-08-17T11:07:44;26.50;99.90
22781;DHT22;11557;50.884;4.322;2023-08-17T11:12:45;26.50;99.90
22781;DHT22;11557;50.884;4.322;2023-08-17T11:15:11;26.50;99.90
22781;DHT22;11557;50.884;4.322;2023-08-17T11:17:36;26.40;99.90
22781;DHT22;11557;50.884;4.322;2023-08-17T11:20:04;26.30;99.90
22781;DHT22;11557;50.884;4.322;2023-08-17T11:22:30;26.20;99.90
22781;DHT22;11557;50.884;4.322;2023-08-17T11:24:55;27.10;99.90
22781;DHT22;11557;50.884;4.322;2023-08-17T11:27:21;26.00;99.90
22781;DHT22;11557;50.884;4.322;2023-08-17T11:29:47;25.90;99.90
22781;DHT22;11557;50.884;4.322;2023-08-17T11:32:16;25.80;99.90
22781;DHT22;11557;50.884;4.322;2023-08-17T11:34:43;25.80;99.90
22781;DHT22;11557;50.884;4.322;2023-08-17T11:37:11;25.80;99.90
22781;DHT22;11557;50.884;4.322;2023-08-17T11:39:36;25.80;99.90
22781;DHT22;11557;50.884;4.322;2023-08-17T11:42:03;25.80;99.90
22781;DHT22;11557;50.884;4.322;2023-08-17T11:44:29;25.80;99.90
22781;DHT22;11557;50.884;4.322;2023-08-17T11:46:54;25.70;99.90
22781;DHT22;11557;50.884;4.322;2023-08-17T11:49:20;25.60;99.90
22781;DHT22;11557;50.884;4.322;2023-08-17T11:51:47;25.60;99.90
22781;DHT22;11557;50.884;4.322;2023-08-17T11:54:13;25.60;99.90
22781;DHT22;11557;50.884;4.322;2023-08-17T11:56:39;25.60;99.90
22781;DHT22;11557;50.884;4.322;2023-08-17T11:59:11;25.60;99.90
22781;DHT22;11557;50.884;4.322;2023-08-17T12:01:44;25.70;99.90
22781;DHT22;11557;50.884;4.322;2023-08-17T12:04:10;25.80;99.90
22781;DHT22;11557;50.884;4.322;2023-08-17T12:06:43;25.70;99.90
22781;DHT22;11557;50.884;4.322;2023-08-17T12:09:09;25.60;99.90
22781;DHT22;11557;50.884;4.322;2023-08-17T12:11:35;25.40;99.90
22781;DHT22;11557;50.884;4.322;2023-08-17T12:14:08;25.40;99.90
22781;DHT22;11557;50.884;4.322;2023-08-17T12:16:46;25.50;99.90
22781;DHT22;11557;50.884;4.322;2023-08-17T12:19:13;25.50;99.90
22781;DHT22;11557;50.884;4.322;2023-08-17T12:21:40;25.60;99.90
22781;DHT22;11557;50.884;4.322;2023-08-17T12:24:08;25.60;99.90
22781;DHT22;11557;50.884;4.322;2023-08-17T12:26:34;25.60;99.90
22781;DHT22;11557;50.884;4.322;2023-08-17T12:29:04;25.70;99.90
22781;DHT22;11557;50.884;4.322;2023-08-17T12:31:30;25.70;99.90
22781;DHT22;11557;50.884;4.322;2023-08-17T12:33:56;25.70;99.90
22781;DHT22;11557;50.884;4.322;2023-08-17T12:36:22;25.90;99.90
22781;DHT22;11557;50.884;4.322;2023-08-17T12:38:47;25.90;99.90
22781;DHT22;11557;50.884;4.322;2023-08-17T12:41:13;25.90;99.90
22781;DHT22;11557;50.884;4.322;2023-08-17T12:43:39;26.00;99.90
22781;DHT22;11557;50.884;4.322;2023-08-17T12:46:04;26.10;99.90
22781;DHT22;11557;50.884;4.322;2023-08-17T12:48:30;26.00;99.90
22781;DHT22;11557;50.884;4.322;2023-08-17T12:50:56;26.00;99.90
22781;DHT22;11557;50.884;4.322;2023-08-17T12:53:22;25.90;99.90
22781;DHT22;11557;50.884;4.322;2023-08-17T12:55:47;25.90;99.90
22781;DHT22;11557;50.884;4.322;2023-08-17T12:58:14;25.90;99.90
22781;DHT22;11557;50.884;4.322;2023-08-17T13:00:39;26.00;99.90
22781;DHT22;11557;50.884;4.322;2023-08-17T13:03:05;25.90;99.90
22781;DHT22;11557;50.884;4.322;2023-08-17T13:05:31;26.00;99.90
22781;DHT22;11557;50.884;4.322;2023-08-17T13:07:57;25.80;99.90
22781;DHT22;11557;50.884;4.322;2023-08-17T13:10:23;25.90;99.90
22781;DHT22;11557;50.884;4.322;2023-08-17T13:12:48;25.60;99.90
22781;DHT22;11557;50.884;4.322;2023-08-17T13:15:14;25.60;99.90
22781;DHT22;11557;50.884;4.322;2023-08-17T13:17:39;25.60;99.90
22781;DHT22;11557;50.884;4.322;2023-08-17T13:20:05;25.80;99.90
22781;DHT22;11557;50.884;4.322;2023-08-17T13:22:32;25.80;99.90
22781;DHT22;11557;50.884;4.322;2023-08-17T13:24:59;25.90;99.90
22781;DHT22;11557;50.884;4.322;2023-08-17T13:27:24;25.90;99.90
22781;DHT22;11557;50.884;4.322;2023-08-17T13:29:50;25.90;99.90
22781;DHT22;11557;50.884;4.322;2023-08-17T13:32:15;25.90;99.90
22781;DHT22;11557;50.884;4.322;2023-08-17T13:34:42;25.70;99.90
22781;DHT22;11557;50.884;4.322;2023-08-17T13:37:07;25.70;99.90
22781;DHT22;11557;50.884;4.322;2023-08-17T13:39:33;25.60;99.90
22781;DHT22;11557;50.884;4.322;2023-08-17T13:41:59;25.40;99.90
22781;DHT22;11557;50.884;4.322;2023-08-17T13:44:24;25.50;99.90
22781;DHT22;11557;50.884;4.322;2023-08-17T13:46:50;25.50;99.90
22781;DHT22;11557;50.884;4.322;2023-08-17T13:49:16;25.60;99.90
22781;DHT22;11557;50.884;4.322;2023-08-17T13:51:42;25.60;99.90
22781;DHT22;11557;50.884;4.322;2023-08-17T13:54:07;25.60;99.90
22781;DHT22;11557;50.884;4.322;2023-08-17T13:56:33;25.30;99.90
22781;DHT22;11557;50.884;4.322;2023-08-17T13:58:58;25.40;99.90
22781;DHT22;11557;50.884;4.322;2023-08-17T14:01:24;25.40;99.90
22781;DHT22;11557;50.884;4.322;2023-08-17T14:03:50;25.50;99.90
22781;DHT22;11557;50.884;4.322;2023-08-17T14:06:15;25.30;99.90
22781;DHT22;11557;50.884;4.322;2023-08-17T14:08:42;25.30;99.90
22781;DHT22;11557;50.884;4.322;2023-08-17T14:11:08;25.30;99.90
22781;DHT22;11557;50.884;4.322;2023-08-17T14:13:34;25.40;99.90
22781;DHT22;11557;50.884;4.322;2023-08-17T14:16:02;25.40;99.90
22781;DHT22;11557;50.884;4.322;2023-08-17T14:18:28;25.50;99.90
22781;DHT22;11557;50.884;4.322;2023-08-17T14:20:53;25.60;99.90
22781;DHT22;11557;50.884;4.322;2023-08-17T14:23:19;25.50;99.90
22781;DHT22;11557;50.884;4.322;2023-08-17T14:25:45;25.60;99.90
22781;DHT22;11557;50.884;4.322;2023-08-17T14:28:10;25.50;99.90
22781;DHT22;11557;50.884;4.322;2023-08-17T14:30:36;25.50;99.90
22781;DHT22;11557;50.884;4.322;2023-08-17T14:33:02;25.50;99.90
22781;DHT22;11557;50.884;4.322;2023-08-17T14:35:28;25.50;99.90
22781;DHT22;11557;50.884;4.322;2023-08-17T14:37:54;25.50;99.90
22781;DHT22;11557;50.884;4.322;2023-08-17T14:40:23;25.50;99.90
22781;DHT22;11557;50.884;4.322;2023-08-17T14:42:49;25.50;99.90
22781;DHT22;11557;50.884;4.322;2023-08-17T14:45:14;25.50;99.90
22781;DHT22;11557;50.884;4.322;2023-08-17T14:47:40;25.50;99.90
22781;DHT22;11557;50.884;4.322;2023-08-17T14:50:06;25.30;99.90
22781;DHT22;11557;50.884;4.322;2023-08-17T14:52:32;25.30;99.90
22781;DHT22;11557;50.884;4.322;2023-08-17T14:54:57;25.30;99.90
22781;DHT22;11557;50.884;4.322;2023-08-17T14:57:23;25.50;99.90
22781;DHT22;11557;50.884;4.322;2023-08-17T14:59:48;25.50;99.90
22781;DHT22;11557;50.884;4.322;2023-08-17T15:02:14;25.60;99.90
22781;DHT22;11557;50.884;4.322;2023-08-17T15:04:42;25.60;99.90
22781;DHT22;11557;50.884;4.322;2023-08-17T15:07:07;25.60;99.90
22781;DHT22;11557;50.884;4.322;2023-08-17T15:09:37;25.60;99.90
22781;DHT22;11557;50.884;4.322;2023-08-17T15:12:03;25.60;99.90
22781;DHT22;11557;50.884;4.322;2023-08-17T15:14:29;25.40;99.90
22781;DHT22;11557;50.884;4.322;2023-08-17T15:16:55;25.40;99.90
22781;DHT22;11557;50.884;4.322;2023-08-17T15:19:20;25.30;99.90
22781;DHT22;11557;50.884;4.322;2023-08-17T15:21:46;25.40;99.90
22781;DHT22;11557;50.884;4.322;2023-08-17T15:24:12;25.30;99.90
22781;DHT22;11557;50.884;4.322;2023-08-17T15:26:37;25.30;99.90
22781;DHT22;11557;50.884;4.322;2023-08-17T15:29:03;25.20;99.90
22781;DHT22;11557;50.884;4.322;2023-08-17T15:31:29;25.10;99.90
22781;DHT22;11557;50.884;4.322;2023-08-17T15:33:54;25.10;99.90
22781;DHT22;11557;50.884;4.322;2023-08-17T15:36:20;25.10;99.90
22781;DHT22;11557;50.884;4.322;2023-08-17T15:38:49;25.10;99.90
22781;DHT22;11557;50.884;4.322;2023-08-17T15:41:15;25.10;99.90